sensor_id;sensor_type;location;lat;lon;timestamp;pressure;altitude;pressure_sealevel;temperature;humidity
6859;BME280;3468;42.824;23.240;2023-05-23T00:01:58;68462.00;;;11.22;100.00
6859;BME280;3468;42.824;23.240;2023-05-23T00:04:26;68425.59;;;11.19;100.00
6859;BME280;3468;42.824;23.240;2023-05-23T00:06:53;68564.34;;;10.49;100.00
6859;BME280;3468;42.824;23.240;2023-05-23T00:09:20;68358.75;;;10.90;100.00
6859;BME280;3468;42.824;23.240;2023-05-23T00:11:49;68404.31;;;11.01;100.00
6859;BME280;3468;42.824;23.240;2023-05-23T00:14:16;68370.69;;;10.59;100.00
6859;BME280;3468;42.824;23.240;2023-05-23T00:16:44;68276.84;;;10.29;100.00
6859;BME280;3468;42.824;23.240;2023-05-23T00:19:14;68402.84;;;10.98;100.00
6859;BME280;3468;42.824;23.240;2023-05-23T00:21:41;68279.78;;;10.46;100.00
6859;BME280;3468;42.824;23.240;2023-05-23T00:24:08;68411.72;;;10.92;100.00
6859;BME280;3468;42.824;23.240;2023-05-23T00:26:35;68405.41;;;10.87;100.00
6859;BME280;3468;42.824;23.240;2023-05-23T00:29:04;68386.31;;;10.77;100.00
6859;BME280;3468;42.824;23.240;2023-05-23T00:31:31;68324.81;;;10.35;100.00
6859;BME280;3468;42.824;23.240;2023-05-23T00:34:00;68418.69;;;10.76;100.00
6859;BME280;3468;42.824;23.240;2023-05-23T00:36:27;68394.59;;;10.82;100.00
6859;BME280;3468;42.824;23.240;2023-05-23T00:38:55;68346.94;;;10.78;100.00
6859;BME280;3468;42.824;23.240;2023-05-23T00:41:21;68386.34;;;10.66;100.00
6859;BME280;3468;42.824;23.240;2023-05-23T00:43:51;68393.50;;;10.59;100.00
6859;BME280;3468;42.824;23.240;2023-05-23T00:46:19;68347.78;;;10.55;100.00
6859;BME280;3468;42.824;23.240;2023-05-23T00:48:46;68371.16;;;10.55;100.00
6859;BME280;3468;42.824;23.240;2023-05-23T00:51:13;68380.47;;;10.57;100.00
6859;BME280;3468;42.824;23.240;2023-05-23T00:53:40;68409.25;;;10.60;100.00
6859;BME280;3468;42.824;23.240;2023-05-23T00:56:08;68397.72;;;10.61;100.00
6859;BME280;3468;42.824;23.240;2023-05-23T00:58:36;68388.66;;;10.57;100.00
6859;BME280;3468;42.824;23.240;2023-05-23T01:01:03;68393.25;;;10.61;100.00
6859;BME280;3468;42.824;23.240;2023-05-23T01:03:32;68333.22;;;10.33;100.00
6859;BME280;3468;42.824;23.240;2023-05-23T01:05:59;68348.66;;;10.21;100.00
6859;BME280;3468;42.824;23.240;2023-05-23T01:08:28;68372.88;;;10.57;100.00
6859;BME280;3468;42.824;23.240;2023-05-23T01:10:56;68399.00;;;10.55;100.00
6859;BME280;3468;42.824;23.240;2023-05-23T01:13:36;68372.56;;;10.54;100.00
6859;BME280;3468;42.824;23.240;2023-05-23T01:16:09;68379.69;;;10.58;100.00
6859;BME280;3468;42.824;23.240;2023-05-23T01:18:43;68426.63;;;10.57;100.00
6859;BME280;3468;42.824;23.240;2023-05-23T01:21:16;68369.78;;;10.45;100.00
6859;BME280;3468;42.824;23.240;2023-05-23T01:26:50;68343.81;;;10.30;100.00
6859;BME280;3468;42.824;23.240;2023-05-23T01:29:25;68360.06;;;10.26;100.00
6859;BME280;3468;42.824;23.240;2023-05-23T01:31:56;68379.28;;;10.19;100.00
6859;BME280;3468;42.824;23.240;2023-05-23T01:34:23;68327.53;;;10.07;100.00
6859;BME280;3468;42.824;23.240;2023-05-23T01:36:53;68323.41;;;9.99;100.00
6859;BME280;3468;42.824;23.240;2023-05-23T01:39:20;68294.41;;;9.98;100.00
6859;BME280;3468;42.824;23.240;2023-05-23T01:41:48;68338.56;;;9.99;100.00
6859;BME280;3468;42.824;23.240;2023-05-23T01:44:15;68333.03;;;10.03;100.00
6859;BME280;3468;42.824;23.240;2023-05-23T01:46:43;68343.16;;;10.03;100.00
6859;BME280;3468;42.824;23.240;2023-05-23T01:49:13;68311.53;;;9.76;100.00
6859;BME280;3468;42.824;23.240;2023-05-23T01:51:41;68334.09;;;9.99;100.00
6859;BME280;3468;42.824;23.240;2023-05-23T01:54:08;68338.78;;;9.86;100.00
6859;BME280;3468;42.824;23.240;2023-05-23T01:56:35;68298.31;;;9.86;100.00
6859;BME280;3468;42.824;23.240;2023-05-23T01:59:02;68303.03;;;9.73;100.00
6859;BME280;3468;42.824;23.240;2023-05-23T02:01:29;68307.28;;;9.74;100.00
6859;BME280;3468;42.824;23.240;2023-05-23T02:03:57;68325.22;;;9.72;100.00
6859;BME280;3468;42.824;23.240;2023-05-23T02:06:24;68313.06;;;9.68;100.00
6859;BME280;3468;42.824;23.240;2023-05-23T02:08:51;68308.78;;;9.78;100.00
6859;BME280;3468;42.824;23.240;2023-05-23T02:11:18;68297.97;;;9.73;100.00
6859;BME280;3468;42.824;23.240;2023-05-23T02:13:44;68313.38;;;9.71;100.00
6859;BME280;3468;42.824;23.240;2023-05-23T02:16:11;68344.31;;;9.71;100.00
6859;BME280;3468;42.824;23.240;2023-05-23T02:18:38;68322.13;;;9.72;100.00
6859;BME280;3468;42.824;23.240;2023-05-23T02:21:06;68332.47;;;9.70;100.00
6859;BME280;3468;42.824;23.240;2023-05-23T02:23:33;68291.56;;;9.41;100.00
6859;BME280;3468;42.824;23.240;2023-05-23T02:25:59;68298.69;;;9.56;100.00
6859;BME280;3468;42.824;23.240;2023-05-23T02:28:26;68305.00;;;9.50;100.00
6859;BME280;3468;42.824;23.240;2023-05-23T02:30:53;68288.81;;;9.43;100.00
6859;BME280;3468;42.824;23.240;2023-05-23T02:33:20;68264.81;;;9.27;100.00
6859;BME280;3468;42.824;23.240;2023-05-23T02:35:47;68259.53;;;9.40;100.00
6859;BME280;3468;42.824;23.240;2023-05-23T02:38:17;68294.56;;;9.37;100.00
6859;BME280;3468;42.824;23.240;2023-05-23T02:40:44;68244.25;;;9.24;100.00
6859;BME280;3468;42.824;23.240;2023-05-23T02:43:11;68309.38;;;9.35;100.00
6859;BME280;3468;42.824;23.240;2023-05-23T02:45:38;68247.91;;;9.36;100.00
6859;BME280;3468;42.824;23.240;2023-05-23T02:48:04;68285.94;;;9.41;100.00
6859;BME280;3468;42.824;23.240;2023-05-23T02:50:31;68293.31;;;9.43;100.00
6859;BME280;3468;42.824;23.240;2023-05-23T02:52:58;68126.56;;;8.99;100.00
6859;BME280;3468;42.824;23.240;2023-05-23T02:55:26;68291.13;;;9.34;100.00
6859;BME280;3468;42.824;23.240;2023-05-23T02:57:53;68254.69;;;9.27;100.00
6859;BME280;3468;42.824;23.240;2023-05-23T03:00:21;68290.19;;;9.42;100.00
6859;BME280;3468;42.824;23.240;2023-05-23T03:02:47;68271.94;;;9.42;100.00
6859;BME280;3468;42.824;23.240;2023-05-23T03:05:14;68284.31;;;9.44;100.00
6859;BME280;3468;42.824;23.240;2023-05-23T03:07:41;68276.75;;;9.54;100.00
6859;BME280;3468;42.824;23.240;2023-05-23T03:10:08;68267.31;;;9.59;100.00
6859;BME280;3468;42.824;23.240;2023-05-23T03:12:37;68290.53;;;9.66;100.00
6859;BME280;3468;42.824;23.240;2023-05-23T03:15:04;68295.00;;;9.77;100.00
6859;BME280;3468;42.824;23.240;2023-05-23T03:17:31;68302.91;;;9.90;100.00
6859;BME280;3468;42.824;23.240;2023-05-23T03:19:58;68319.47;;;10.00;100.00
6859;BME280;3468;42.824;23.240;2023-05-23T03:22:25;68355.38;;;10.07;100.00
6859;BME280;3468;42.824;23.240;2023-05-23T03:24:51;68342.47;;;9.98;100.00
6859;BME280;3468;42.824;23.240;2023-05-23T03:27:18;68359.72;;;10.24;100.00
6859;BME280;3468;42.824;23.240;2023-05-23T03:29:46;68375.81;;;10.27;100.00
6859;BME280;3468;42.824;23.240;2023-05-23T03:32:13;68398.59;;;10.37;100.00
6859;BME280;3468;42.824;23.240;2023-05-23T03:34:40;68387.88;;;10.48;100.00
6859;BME280;3468;42.824;23.240;2023-05-23T03:37:07;68389.13;;;10.53;100.00
6859;BME280;3468;42.824;23.240;2023-05-23T03:39:33;68415.59;;;10.65;100.00
6859;BME280;3468;42.824;23.240;2023-05-23T03:42:00;68356.94;;;10.36;100.00
6859;BME280;3468;42.824;23.240;2023-05-23T03:44:27;68412.13;;;10.62;100.00
6859;BME280;3468;42.824;23.240;2023-05-23T03:46:55;68413.38;;;10.78;100.00
6859;BME280;3468;42.824;23.240;2023-05-23T03:49:22;68450.44;;;10.86;100.00
6859;BME280;3468;42.824;23.240;2023-05-23T03:51:48;68421.28;;;10.92;100.00
6859;BME280;3468;42.824;23.240;2023-05-23T03:54:15;68438.91;;;10.98;100.00
6859;BME280;3468;42.824;23.240;2023-05-23T03:56:43;68429.34;;;10.99;100.00
6859;BME280;3468;42.824;23.240;2023-05-23T03:59:10;68467.09;;;11.12;100.00
6859;BME280;3468;42.824;23.240;2023-05-23T04:01:37;68463.06;;;11.19;100.00
6859;BME280;3468;42.824;23.240;2023-05-23T04:04:05;68451.88;;;11.22;100.00
6859;BME280;3468;42.824;23.240;2023-05-23T04:06:32;68458.19;;;11.28;100.00
6859;BME280;3468;42.824;23.240;2023-05-23T04:08:59;68459.69;;;11.31;100.00
6859;BME280;3468;42.824;23.240;2023-05-23T04:11:26;68488.25;;;11.36;100.00
6859;BME280;3468;42.824;23.240;2023-05-23T04:13:53;68474.19;;;11.37;100.00
6859;BME280;3468;42.824;23.240;2023-05-23T04:16:20;68454.69;;;11.47;100.00
6859;BME280;3468;42.824;23.240;2023-05-23T04:18:47;68514.53;;;11.50;100.00
6859;BME280;3468;42.824;23.240;2023-05-23T04:21:15;68487.56;;;11.31;100.00
6859;BME280;3468;42.824;23.240;2023-05-23T04:23:42;68368.16;;;10.96;100.00
6859;BME280;3468;42.824;23.240;2023-05-23T04:26:09;68488.69;;;11.43;100.00
6859;BME280;3468;42.824;23.240;2023-05-23T04:28:36;68518.91;;;11.56;100.00
6859;BME280;3468;42.824;23.240;2023-05-23T04:31:04;68436.47;;;11.13;100.00
6859;BME280;3468;42.824;23.240;2023-05-23T04:33:31;68497.34;;;11.51;100.00
6859;BME280;3468;42.824;23.240;2023-05-23T04:35:58;68502.22;;;11.79;100.00
6859;BME280;3468;42.824;23.240;2023-05-23T04:38:27;68505.69;;;12.08;100.00
6859;BME280;3468;42.824;23.240;2023-05-23T04:40:53;68568.34;;;12.20;100.00
6859;BME280;3468;42.824;23.240;2023-05-23T04:43:22;68551.03;;;12.16;100.00
6859;BME280;3468;42.824;23.240;2023-05-23T04:45:51;68548.91;;;11.97;100.00
6859;BME280;3468;42.824;23.240;2023-05-23T04:48:19;68533.34;;;11.95;100.00
6859;BME280;3468;42.824;23.240;2023-05-23T04:50:46;68545.00;;;11.87;100.00
6859;BME280;3468;42.824;23.240;2023-05-23T04:53:15;68491.50;;;11.78;100.00
6859;BME280;3468;42.824;23.240;2023-05-23T04:55:43;68496.22;;;11.87;100.00
6859;BME280;3468;42.824;23.240;2023-05-23T04:58:10;68541.19;;;11.93;100.00
6859;BME280;3468;42.824;23.240;2023-05-23T05:00:37;68519.13;;;12.02;100.00
6859;BME280;3468;42.824;23.240;2023-05-23T05:03:04;68538.91;;;11.80;100.00
6859;BME280;3468;42.824;23.240;2023-05-23T05:05:30;68511.09;;;11.84;100.00
6859;BME280;3468;42.824;23.240;2023-05-23T05:07:57;68533.91;;;11.95;100.00
6859;BME280;3468;42.824;23.240;2023-05-23T05:10:24;68567.91;;;12.02;100.00
6859;BME280;3468;42.824;23.240;2023-05-23T05:12:52;68569.66;;;12.04;100.00
6859;BME280;3468;42.824;23.240;2023-05-23T05:15:19;68500.72;;;12.12;100.00
6859;BME280;3468;42.824;23.240;2023-05-23T05:17:45;68579.41;;;12.23;100.00
6859;BME280;3468;42.824;23.240;2023-05-23T05:20:12;68563.69;;;12.27;100.00
6859;BME280;3468;42.824;23.240;2023-05-23T05:22:39;68546.38;;;12.23;100.00
6859;BME280;3468;42.824;23.240;2023-05-23T05:25:08;68505.53;;;12.25;100.00
6859;BME280;3468;42.824;23.240;2023-05-23T05:27:36;68552.19;;;12.17;100.00
6859;BME280;3468;42.824;23.240;2023-05-23T05:30:06;68503.88;;;12.02;100.00
6859;BME280;3468;42.824;23.240;2023-05-23T05:32:33;68404.00;;;10.99;100.00
6859;BME280;3468;42.824;23.240;2023-05-23T05:35:00;68581.41;;;11.53;100.00
6859;BME280;3468;42.824;23.240;2023-05-23T05:37:26;68579.00;;;12.05;100.00
6859;BME280;3468;42.824;23.240;2023-05-23T05:39:53;68592.25;;;12.06;100.00
6859;BME280;3468;42.824;23.240;2023-05-23T05:42:20;68509.06;;;12.06;100.00
6859;BME280;3468;42.824;23.240;2023-05-23T05:44:47;68525.91;;;12.03;100.00
6859;BME280;3468;42.824;23.240;2023-05-23T05:47:16;68562.59;;;12.04;100.00
6859;BME280;3468;42.824;23.240;2023-05-23T05:49:42;68570.66;;;12.11;100.00
6859;BME280;3468;42.824;23.240;2023-05-23T05:52:09;68554.97;;;12.15;100.00
6859;BME280;3468;42.824;23.240;2023-05-23T05:54:36;68578.56;;;12.36;100.00
6859;BME280;3468;42.824;23.240;2023-05-23T05:57:06;68541.75;;;12.30;100.00
6859;BME280;3468;42.824;23.240;2023-05-23T05:59:32;68610.16;;;12.47;100.00
6859;BME280;3468;42.824;23.240;2023-05-23T06:01:59;68568.09;;;12.48;100.00
6859;BME280;3468;42.824;23.240;2023-05-23T06:04:27;68559.75;;;12.28;100.00
6859;BME280;3468;42.824;23.240;2023-05-23T06:06:54;68615.34;;;12.52;100.00
6859;BME280;3468;42.824;23.240;2023-05-23T06:09:21;68573.97;;;12.58;100.00
6859;BME280;3468;42.824;23.240;2023-05-23T06:11:47;68613.34;;;12.63;100.00
6859;BME280;3468;42.824;23.240;2023-05-23T06:14:14;68648.78;;;12.70;100.00
6859;BME280;3468;42.824;23.240;2023-05-23T06:16:41;68599.50;;;12.88;100.00
6859;BME280;3468;42.824;23.240;2023-05-23T06:19:08;68622.19;;;12.79;100.00
6859;BME280;3468;42.824;23.240;2023-05-23T06:21:36;68636.28;;;12.78;100.00
6859;BME280;3468;42.824;23.240;2023-05-23T06:24:03;68585.28;;;12.59;100.00
6859;BME280;3468;42.824;23.240;2023-05-23T06:26:30;68600.94;;;12.77;100.00
6859;BME280;3468;42.824;23.240;2023-05-23T06:28:57;68671.09;;;13.06;100.00
6859;BME280;3468;42.824;23.240;2023-05-23T06:31:24;68636.59;;;13.18;100.00
6859;BME280;3468;42.824;23.240;2023-05-23T06:33:51;68668.56;;;13.32;100.00
6859;BME280;3468;42.824;23.240;2023-05-23T06:36:18;68658.66;;;13.46;100.00
6859;BME280;3468;42.824;23.240;2023-05-23T06:38:46;68614.44;;;13.54;100.00
6859;BME280;3468;42.824;23.240;2023-05-23T06:41:13;68697.50;;;13.77;100.00
6859;BME280;3468;42.824;23.240;2023-05-23T06:43:40;68693.34;;;13.95;100.00
6859;BME280;3468;42.824;23.240;2023-05-23T06:46:07;68735.63;;;14.14;100.00
6859;BME280;3468;42.824;23.240;2023-05-23T06:48:34;68807.25;;;14.27;100.00
6859;BME280;3468;42.824;23.240;2023-05-23T06:51:00;68781.25;;;14.57;100.00
6859;BME280;3468;42.824;23.240;2023-05-23T06:53:27;68795.50;;;14.76;100.00
6859;BME280;3468;42.824;23.240;2023-05-23T06:55:56;68770.66;;;14.50;100.00
6859;BME280;3468;42.824;23.240;2023-05-23T06:58:23;68773.47;;;14.94;100.00
6859;BME280;3468;42.824;23.240;2023-05-23T07:00:51;68830.09;;;15.06;100.00
6859;BME280;3468;42.824;23.240;2023-05-23T07:03:18;68850.75;;;15.04;100.00
6859;BME280;3468;42.824;23.240;2023-05-23T07:05:44;68873.56;;;15.10;100.00
6859;BME280;3468;42.824;23.240;2023-05-23T07:08:11;68862.09;;;15.31;100.00
6859;BME280;3468;42.824;23.240;2023-05-23T07:10:38;68871.91;;;15.39;100.00
6859;BME280;3468;42.824;23.240;2023-05-23T07:13:08;68897.44;;;15.70;100.00
6859;BME280;3468;42.824;23.240;2023-05-23T07:15:35;68935.03;;;15.91;100.00
6859;BME280;3468;42.824;23.240;2023-05-23T07:18:04;68961.44;;;16.05;100.00
6859;BME280;3468;42.824;23.240;2023-05-23T07:20:32;68913.88;;;15.97;100.00
6859;BME280;3468;42.824;23.240;2023-05-23T07:22:59;68932.75;;;16.20;100.00
6859;BME280;3468;42.824;23.240;2023-05-23T07:25:26;68927.56;;;16.31;100.00
6859;BME280;3468;42.824;23.240;2023-05-23T07:27:53;68933.75;;;16.27;100.00
6859;BME280;3468;42.824;23.240;2023-05-23T07:30:22;68953.31;;;16.24;100.00
6859;BME280;3468;42.824;23.240;2023-05-23T07:32:50;69086.59;;;16.01;100.00
6859;BME280;3468;42.824;23.240;2023-05-23T07:35:18;68998.16;;;16.39;100.00
6859;BME280;3468;42.824;23.240;2023-05-23T07:37:48;68990.97;;;16.65;100.00
6859;BME280;3468;42.824;23.240;2023-05-23T07:40:16;68999.16;;;16.77;100.00
6859;BME280;3468;42.824;23.240;2023-05-23T07:42:43;69006.06;;;16.83;100.00
6859;BME280;3468;42.824;23.240;2023-05-23T07:45:10;69007.13;;;16.95;100.00
6859;BME280;3468;42.824;23.240;2023-05-23T07:47:40;69024.19;;;17.11;100.00
6859;BME280;3468;42.824;23.240;2023-05-23T07:50:08;69060.78;;;17.36;100.00
6859;BME280;3468;42.824;23.240;2023-05-23T07:52:35;69129.16;;;17.88;100.00
6859;BME280;3468;42.824;23.240;2023-05-23T07:55:02;69177.75;;;18.49;100.00
6859;BME280;3468;42.824;23.240;2023-05-23T07:57:29;69227.81;;;18.94;100.00
6859;BME280;3468;42.824;23.240;2023-05-23T07:59:56;69194.34;;;18.70;100.00
6859;BME280;3468;42.824;23.240;2023-05-23T08:02:24;69288.66;;;19.31;100.00
6859;BME280;3468;42.824;23.240;2023-05-23T08:04:53;69233.63;;;18.99;100.00
6859;BME280;3468;42.824;23.240;2023-05-23T08:07:21;69306.16;;;19.54;100.00
6859;BME280;3468;42.824;23.240;2023-05-23T08:09:48;69377.44;;;20.20;100.00
6859;BME280;3468;42.824;23.240;2023-05-23T08:12:16;69370.47;;;20.53;100.00
6859;BME280;3468;42.824;23.240;2023-05-23T08:14:44;69369.66;;;20.35;100.00
6859;BME280;3468;42.824;23.240;2023-05-23T08:17:11;69430.94;;;20.78;100.00
6859;BME280;3468;42.824;23.240;2023-05-23T08:19:38;69461.53;;;20.76;100.00
6859;BME280;3468;42.824;23.240;2023-05-23T08:22:08;69375.69;;;20.58;100.00
6859;BME280;3468;42.824;23.240;2023-05-23T08:24:34;69479.94;;;21.03;98.54
6859;BME280;3468;42.824;23.240;2023-05-23T08:27:01;69426.06;;;20.76;99.24
6859;BME280;3468;42.824;23.240;2023-05-23T08:29:28;69456.38;;;21.15;100.00
6859;BME280;3468;42.824;23.240;2023-05-23T08:31:55;69495.16;;;21.44;100.00
6859;BME280;3468;42.824;23.240;2023-05-23T08:34:22;69566.13;;;22.02;98.63
6859;BME280;3468;42.824;23.240;2023-05-23T08:36:49;69576.25;;;22.09;94.39
6859;BME280;3468;42.824;23.240;2023-05-23T08:39:18;69567.06;;;21.86;95.34
6859;BME280;3468;42.824;23.240;2023-05-23T08:41:45;69508.16;;;21.53;96.33
6859;BME280;3468;42.824;23.240;2023-05-23T08:44:12;69511.84;;;21.74;100.00
6859;BME280;3468;42.824;23.240;2023-05-23T08:46:43;69559.94;;;22.10;98.09
6859;BME280;3468;42.824;23.240;2023-05-23T08:49:12;69493.84;;;21.78;94.70
6859;BME280;3468;42.824;23.240;2023-05-23T08:51:41;69601.06;;;22.41;97.67
6859;BME280;3468;42.824;23.240;2023-05-23T08:54:09;69623.78;;;22.45;94.65
6859;BME280;3468;42.824;23.240;2023-05-23T08:56:39;69646.28;;;22.31;95.08
6859;BME280;3468;42.824;23.240;2023-05-23T08:59:07;69625.53;;;22.71;97.03
6859;BME280;3468;42.824;23.240;2023-05-23T09:01:35;69622.59;;;22.88;96.02
6859;BME280;3468;42.824;23.240;2023-05-23T09:04:01;69625.44;;;22.62;91.87
6859;BME280;3468;42.824;23.240;2023-05-23T09:06:31;69617.38;;;22.59;94.72
6859;BME280;3468;42.824;23.240;2023-05-23T09:08:58;69626.81;;;22.56;98.18
6859;BME280;3468;42.824;23.240;2023-05-23T09:11:25;69635.94;;;22.31;96.33
6859;BME280;3468;42.824;23.240;2023-05-23T09:13:53;69628.94;;;22.45;100.00
6859;BME280;3468;42.824;23.240;2023-05-23T09:16:20;69625.13;;;22.59;94.18
6859;BME280;3468;42.824;23.240;2023-05-23T09:18:47;69651.41;;;22.95;96.07
6859;BME280;3468;42.824;23.240;2023-05-23T09:21:14;69677.06;;;23.01;91.97
6859;BME280;3468;42.824;23.240;2023-05-23T09:23:42;69750.34;;;23.53;90.30
6859;BME280;3468;42.824;23.240;2023-05-23T09:26:10;69764.94;;;23.94;87.60
6859;BME280;3468;42.824;23.240;2023-05-23T09:28:38;70141.66;;;24.14;86.65
6859;BME280;3468;42.824;23.240;2023-05-23T09:31:07;69928.22;;;24.99;82.89
6859;BME280;3468;42.824;23.240;2023-05-23T09:33:37;69886.16;;;24.75;73.70
6859;BME280;3468;42.824;23.240;2023-05-23T09:36:05;69883.69;;;24.59;72.45
6859;BME280;3468;42.824;23.240;2023-05-23T09:38:37;69802.97;;;24.52;73.82
6859;BME280;3468;42.824;23.240;2023-05-23T09:41:05;69858.81;;;24.51;72.04
6859;BME280;3468;42.824;23.240;2023-05-23T09:43:32;69899.81;;;24.84;70.92
6859;BME280;3468;42.824;23.240;2023-05-23T09:46:00;69775.25;;;24.47;68.41
6859;BME280;3468;42.824;23.240;2023-05-23T09:48:33;69868.56;;;24.47;64.15
6859;BME280;3468;42.824;23.240;2023-05-23T09:51:03;69891.28;;;24.70;63.65
6859;BME280;3468;42.824;23.240;2023-05-23T09:53:30;69905.47;;;25.00;68.39
6859;BME280;3468;42.824;23.240;2023-05-23T09:55:57;69963.22;;;25.67;67.98
6859;BME280;3468;42.824;23.240;2023-05-23T09:58:26;70075.94;;;26.12;63.99
6859;BME280;3468;42.824;23.240;2023-05-23T10:00:54;70022.19;;;25.77;63.09
6859;BME280;3468;42.824;23.240;2023-05-23T10:03:26;69917.28;;;24.75;60.90
6859;BME280;3468;42.824;23.240;2023-05-23T10:05:59;69886.59;;;24.62;61.15
6859;BME280;3468;42.824;23.240;2023-05-23T10:08:35;69803.06;;;24.61;60.13
6859;BME280;3468;42.824;23.240;2023-05-23T10:14:04;69816.81;;;23.78;63.08
6859;BME280;3468;42.824;23.240;2023-05-23T10:16:37;69798.59;;;24.18;65.28
6859;BME280;3468;42.824;23.240;2023-05-23T10:19:09;69886.09;;;24.70;63.89
6859;BME280;3468;42.824;23.240;2023-05-23T10:21:43;69977.56;;;25.33;60.03
6859;BME280;3468;42.824;23.240;2023-05-23T10:24:14;70010.50;;;25.63;59.53
6859;BME280;3468;42.824;23.240;2023-05-23T10:26:42;69971.31;;;25.40;58.79
6859;BME280;3468;42.824;23.240;2023-05-23T10:29:10;69932.97;;;24.88;63.12
6859;BME280;3468;42.824;23.240;2023-05-23T10:31:37;69904.09;;;24.81;65.27
6859;BME280;3468;42.824;23.240;2023-05-23T10:34:13;69886.84;;;24.84;63.18
6859;BME280;3468;42.824;23.240;2023-05-23T10:36:54;69939.25;;;25.37;65.61
6859;BME280;3468;42.824;23.240;2023-05-23T10:39:29;69992.50;;;25.80;61.67
6859;BME280;3468;42.824;23.240;2023-05-23T10:42:01;70075.88;;;26.36;61.03
6859;BME280;3468;42.824;23.240;2023-05-23T10:44:29;70100.94;;;26.57;58.65
6859;BME280;3468;42.824;23.240;2023-05-23T10:46:58;70202.66;;;27.17;61.80
6859;BME280;3468;42.824;23.240;2023-05-23T10:49:40;70240.00;;;27.48;57.68
6859;BME280;3468;42.824;23.240;2023-05-23T10:52:09;70252.88;;;27.64;55.98
6859;BME280;3468;42.824;23.240;2023-05-23T10:54:42;70301.53;;;28.03;52.83
6859;BME280;3468;42.824;23.240;2023-05-23T10:57:10;70361.88;;;28.10;50.56
6859;BME280;3468;42.824;23.240;2023-05-23T10:59:38;70379.25;;;28.40;47.27
6859;BME280;3468;42.824;23.240;2023-05-23T11:02:11;70247.31;;;27.28;45.17
6859;BME280;3468;42.824;23.240;2023-05-23T11:04:39;70144.38;;;26.67;45.34
6859;BME280;3468;42.824;23.240;2023-05-23T11:07:30;70157.72;;;26.74;48.21
6859;BME280;3468;42.824;23.240;2023-05-23T11:10:07;70122.28;;;26.86;46.33
6859;BME280;3468;42.824;23.240;2023-05-23T11:12:36;70188.16;;;27.13;48.04
6859;BME280;3468;42.824;23.240;2023-05-23T11:15:18;70210.19;;;27.14;46.61
6859;BME280;3468;42.824;23.240;2023-05-23T11:17:50;70214.16;;;27.09;48.00
6859;BME280;3468;42.824;23.240;2023-05-23T11:20:18;70234.53;;;27.22;47.58
6859;BME280;3468;42.824;23.240;2023-05-23T11:22:54;70219.16;;;27.48;47.45
6859;BME280;3468;42.824;23.240;2023-05-23T11:25:39;70135.41;;;26.66;48.69
6859;BME280;3468;42.824;23.240;2023-05-23T11:28:06;70105.06;;;26.65;49.37
6859;BME280;3468;42.824;23.240;2023-05-23T11:30:34;70097.97;;;26.83;49.76
6859;BME280;3468;42.824;23.240;2023-05-23T11:33:06;70090.34;;;26.39;50.31
6859;BME280;3468;42.824;23.240;2023-05-23T11:35:34;70107.31;;;26.01;49.06
6859;BME280;3468;42.824;23.240;2023-05-23T11:38:03;70021.69;;;25.85;50.24
6859;BME280;3468;42.824;23.240;2023-05-23T11:40:32;69984.81;;;25.61;50.00
6859;BME280;3468;42.824;23.240;2023-05-23T11:42:59;69993.25;;;25.70;49.64
6859;BME280;3468;42.824;23.240;2023-05-23T11:45:28;69991.81;;;25.71;47.92
6859;BME280;3468;42.824;23.240;2023-05-23T11:47:56;70029.56;;;25.94;48.19
6859;BME280;3468;42.824;23.240;2023-05-23T11:50:22;70026.97;;;25.66;49.99
6859;BME280;3468;42.824;23.240;2023-05-23T11:52:50;70027.69;;;25.79;49.45
6859;BME280;3468;42.824;23.240;2023-05-23T11:55:18;69932.81;;;25.28;48.94
6859;BME280;3468;42.824;23.240;2023-05-23T11:57:45;70019.13;;;25.90;49.17
6859;BME280;3468;42.824;23.240;2023-05-23T12:00:13;70088.44;;;26.20;49.87
6859;BME280;3468;42.824;23.240;2023-05-23T12:02:40;70138.63;;;26.71;45.83
6859;BME280;3468;42.824;23.240;2023-05-23T12:05:08;70238.53;;;27.16;47.90
6859;BME280;3468;42.824;23.240;2023-05-23T12:07:39;70085.16;;;26.39;46.57
6859;BME280;3468;42.824;23.240;2023-05-23T12:10:07;70067.19;;;26.33;47.55
6859;BME280;3468;42.824;23.240;2023-05-23T12:12:35;70034.38;;;25.83;44.81
6859;BME280;3468;42.824;23.240;2023-05-23T12:15:05;70071.50;;;26.01;44.65
6859;BME280;3468;42.824;23.240;2023-05-23T12:17:32;70048.13;;;26.01;44.98
6859;BME280;3468;42.824;23.240;2023-05-23T12:19:59;70034.63;;;26.10;45.58
6859;BME280;3468;42.824;23.240;2023-05-23T12:22:27;70130.34;;;26.51;45.44
6859;BME280;3468;42.824;23.240;2023-05-23T12:24:54;70088.00;;;26.66;43.83
6859;BME280;3468;42.824;23.240;2023-05-23T12:27:26;70094.63;;;26.32;42.91
6859;BME280;3468;42.824;23.240;2023-05-23T12:30:05;70000.03;;;25.87;44.56
6859;BME280;3468;42.824;23.240;2023-05-23T12:32:33;69993.88;;;25.75;44.75
6859;BME280;3468;42.824;23.240;2023-05-23T12:35:00;69977.06;;;25.65;46.66
6859;BME280;3468;42.824;23.240;2023-05-23T12:37:27;70041.31;;;25.84;47.98
6859;BME280;3468;42.824;23.240;2023-05-23T12:39:55;70010.13;;;25.84;47.22
6859;BME280;3468;42.824;23.240;2023-05-23T12:42:22;69986.84;;;25.36;45.85
6859;BME280;3468;42.824;23.240;2023-05-23T12:44:50;69925.19;;;25.12;46.08
6859;BME280;3468;42.824;23.240;2023-05-23T12:47:18;69923.53;;;25.20;48.00
6859;BME280;3468;42.824;23.240;2023-05-23T12:49:45;70011.44;;;25.70;46.81
6859;BME280;3468;42.824;23.240;2023-05-23T12:52:12;70052.25;;;26.14;43.25
6859;BME280;3468;42.824;23.240;2023-05-23T12:54:39;70059.63;;;26.26;43.62
6859;BME280;3468;42.824;23.240;2023-05-23T12:57:06;70101.72;;;26.51;42.71
6859;BME280;3468;42.824;23.240;2023-05-23T12:59:32;70118.41;;;26.72;39.68
6859;BME280;3468;42.824;23.240;2023-05-23T13:01:59;70202.66;;;27.17;39.65
6859;BME280;3468;42.824;23.240;2023-05-23T13:04:28;70239.44;;;27.48;40.25
6859;BME280;3468;42.824;23.240;2023-05-23T13:06:55;70230.03;;;27.36;42.75
6859;BME280;3468;42.824;23.240;2023-05-23T13:09:21;70205.19;;;27.41;41.63
6859;BME280;3468;42.824;23.240;2023-05-23T13:11:48;70250.53;;;27.62;41.38
6859;BME280;3468;42.824;23.240;2023-05-23T13:14:15;70295.94;;;27.91;39.29
6859;BME280;3468;42.824;23.240;2023-05-23T13:16:41;70205.72;;;27.33;38.21